»·PEaware :: SKY28 KHLN-KLVM

SKY28 :: KHLN-KLVM

FLIGHT INFORMATION

Flight Status: Arrived
Operator:
Sky High Charters
More flights by this operator :: More flights under this callsign
Pilot: John M. (9732)
Aircraft: BEECH AIRCRAFT BONANZA
(BE35)
More flights by this aircraft type
Origin: KHLN Helena Regl
United States
Destination: KLVM Mission
United States
More flights between these airports :: More routes between these airports
Route: +HLN4 HLN V2 LVM
File this flight plan on PilotEdge
Remarks: Sky Hiigh Scenario #7
Altitude:
(Current/Filed)
11,000ft
Speed:
(Current/Filed)
140kts
Departed: 13-Aug-19 03:41 PM
Arrived: 13-Aug-19 04:37 PM
Distance/Time
Traveled:
84nm/0:56
Distance/Time
To Go:
Arrived

Flight Plot

Page will automatically refresh every two minutes.

Flight plan parsing failed; only flown route is shown


Map Options




Map Legend


Flown Route
Filed Route
Departure Airport
Arrival Airport
Navaid (VOR, NDB)
Fix

Horizontal Profiles

Position Reports

Time Latitude Longitude Heading Altitude Ground
Speed
13-Aug-19 15:21 46.603792 -111.997023 89 3880ft 0kts
13-Aug-19 15:22 46.603792 -111.997020 89 3880ft 0kts
13-Aug-19 15:23 46.603792 -111.997016 89 3880ft 0kts
13-Aug-19 15:24 46.603792 -111.997013 89 3880ft 0kts
13-Aug-19 15:25 46.603792 -111.997010 89 3880ft 0kts
13-Aug-19 15:26 46.603792 -111.997006 89 3880ft 0kts
13-Aug-19 15:27 46.603792 -111.997003 89 3880ft 0kts
13-Aug-19 15:28 46.603776 -111.996835 100 3880ft 3kts
13-Aug-19 15:29 46.603220 -111.994852 86 3880ft 8kts
13-Aug-19 15:30 46.603321 -111.991154 85 3880ft 9kts
13-Aug-19 15:31 46.603455 -111.987046 84 3880ft 10kts
13-Aug-19 15:32 46.603535 -111.982777 86 3880ft 10kts
13-Aug-19 15:33 46.603609 -111.978423 97 3880ft 10kts
13-Aug-19 15:34 46.603242 -111.974077 96 3880ft 10kts
13-Aug-19 15:35 46.602821 -111.969694 101 3880ft 11kts
13-Aug-19 15:36 46.602071 -111.965352 104 3880ft 11kts
13-Aug-19 15:37 46.602275 -111.963357 20 3880ft 0kts
13-Aug-19 15:38 46.602279 -111.963355 20 3880ft 0kts
13-Aug-19 15:39 46.602284 -111.963352 20 3880ft 0kts
13-Aug-19 15:40 46.603568 -111.966657 282 3880ft 50kts
13-Aug-19 15:41 46.609772 -112.003566 289 4576ft 102kts
13-Aug-19 15:42 46.633630 -112.011585 23 5773ft 103kts
13-Aug-19 15:43 46.660824 -111.999092 20 6921ft 104kts
13-Aug-19 15:44 46.689186 -111.985485 19 7952ft 106kts
13-Aug-19 15:45 46.715468 -111.976843 344 8725ft 93kts
13-Aug-19 15:46 46.740638 -111.983504 280 9589ft 89kts
13-Aug-19 15:47 46.723686 -111.978497 144 10546ft 93kts
13-Aug-19 15:48 46.698452 -111.964097 168 10998ft 117kts
13-Aug-19 15:49 46.660538 -111.958813 181 11006ft 151kts
13-Aug-19 15:50 46.616617 -111.953690 178 11010ft 167kts
13-Aug-19 15:51 46.581384 -111.917610 108 11002ft 183kts
13-Aug-19 15:52 46.585518 -111.849852 76 11006ft 184kts
13-Aug-19 15:53 46.564415 -111.784610 129 11003ft 177kts
13-Aug-19 15:54 46.532936 -111.730365 133 11015ft 175kts
13-Aug-19 15:55 46.499353 -111.680165 126 11018ft 175kts
13-Aug-19 15:56 46.471743 -111.622226 112 11039ft 176kts
13-Aug-19 15:57 46.453179 -111.556202 121 11008ft 176kts
13-Aug-19 15:58 46.428797 -111.494483 122 10887ft 176kts
13-Aug-19 15:59 46.404327 -111.433222 120 10855ft 175kts
13-Aug-19 16:00 46.381773 -111.370127 119 10944ft 176kts
13-Aug-19 16:01 46.359237 -111.306937 119 10988ft 177kts
13-Aug-19 16:02 46.335478 -111.244716 121 11096ft 177kts
13-Aug-19 16:03 46.311540 -111.182016 121 11034ft 177kts
13-Aug-19 16:04 46.287289 -111.120148 122 10988ft 176kts
13-Aug-19 16:05 46.260130 -111.064529 143 11116ft 173kts
13-Aug-19 16:06 46.221946 -111.022074 145 11244ft 174kts
13-Aug-19 16:07 46.183392 -110.979385 146 11272ft 176kts
13-Aug-19 16:08 46.143946 -110.935806 146 11094ft 179kts
13-Aug-19 16:09 46.104153 -110.893406 148 10997ft 176kts
13-Aug-19 16:10 46.064636 -110.853235 148 10999ft 169kts
13-Aug-19 16:11 46.027581 -110.810563 144 11005ft 175kts
13-Aug-19 16:12 45.989573 -110.765733 144 11004ft 178kts
13-Aug-19 16:13 45.951744 -110.720583 144 10998ft 172kts
13-Aug-19 16:14 45.915058 -110.676601 144 11002ft 175kts
13-Aug-19 16:15 45.877229 -110.631527 144 10999ft 178kts
13-Aug-19 16:16 45.839446 -110.586526 144 10997ft 172kts
13-Aug-19 16:17 45.802883 -110.543049 143 10676ft 168kts
13-Aug-19 16:18 45.766910 -110.501337 144 10177ft 165kts
13-Aug-19 16:19 45.731895 -110.461759 144 9971ft 152kts
13-Aug-19 16:20 45.700935 -110.422833 110 9981ft 151kts
13-Aug-19 16:21 45.717717 -110.366171 58 9798ft 163kts
13-Aug-19 16:22 45.740747 -110.309563 64 9397ft 164kts
13-Aug-19 16:23 45.761382 -110.251776 61 9096ft 162kts
13-Aug-19 16:24 45.784140 -110.196305 61 8571ft 157kts
13-Aug-19 16:25 45.805637 -110.144298 61 8546ft 146kts
13-Aug-19 16:26 45.826003 -110.095147 61 8438ft 143kts
13-Aug-19 16:27 45.807222 -110.077561 234 8327ft 141kts
13-Aug-19 16:28 45.800856 -110.133678 260 8009ft 142kts
13-Aug-19 16:29 45.789575 -110.184532 247 7922ft 127kts
13-Aug-19 16:30 45.777474 -110.231036 247 7705ft 122kts
13-Aug-19 16:31 45.764741 -110.278023 244 6972ft 128kts
13-Aug-19 16:32 45.751900 -110.320419 245 6333ft 120kts
13-Aug-19 16:33 45.739341 -110.362359 237 5609ft 101kts
13-Aug-19 16:34 45.723047 -110.395148 236 5349ft 101kts
13-Aug-19 16:35 45.707021 -110.427505 234 4863ft 95kts
13-Aug-19 16:36 45.695599 -110.450411 234 4633ft 22kts
13-Aug-19 16:37 45.694145 -110.453348 234 4633ft 8kts
13-Aug-19 16:38 45.694004 -110.453786 57 4633ft 7kts
13-Aug-19 16:39 45.695779 -110.452034 322 4633ft 8kts
13-Aug-19 16:40 45.696487 -110.452940 233 4633ft 0kts
13-Aug-19 16:41 45.696487 -110.452940 233 4633ft 0kts
13-Aug-19 16:42 45.696487 -110.452940 233 4633ft 0kts
13-Aug-19 16:43 45.696487 -110.452940 233 4633ft 0kts
13-Aug-19 16:44 45.696487 -110.452940 233 4633ft 0kts
13-Aug-19 16:45 45.696487 -110.452940 233 4633ft 0kts
13-Aug-19 16:46 45.696487 -110.452940 233 4633ft 0kts
13-Aug-19 16:47 45.696487 -110.452940 233 4633ft 0kts
13-Aug-19 16:48 45.696487 -110.452940 233 4633ft 0kts
13-Aug-19 16:49 45.696487 -110.452940 233 4633ft 0kts
13-Aug-19 16:50 45.696487 -110.452940 233 4633ft 0kts
13-Aug-19 16:51 45.696487 -110.452940 233 4633ft 0kts

Navigation Log

Ident Type
Flight plan parsing failed, navigation log unavailable